Nearby METAR Reports

 

KGSP - Greer/Spartansbg, South Carolina, USA
Distance from station: E 4mi, 6km
Updated: Mon, 12-Apr-2021 7:53am EDT
Clear
Clear
 Wind from calm
Wind: Calm
Temperature: 54°F , 12°C
Dew Point: 39°F , 4°C
Humidity: 58%
Barometer: 29.77 inHg , 1008.1 hPa
Clouds: Clear
Visibility: 10 miles , 16 km
2021/04/12 11:53 KGSP 121153Z 00000KT 10SM CLR 12/04 A2977 RMK AO2 SLP075 T01220044 10139 20083 51021
KGMU - Greenville, South Carolina, USA
Distance from station: SW 5mi, 8km
Updated: Mon, 12-Apr-2021 7:53am EDT
Clear
Clear
 Wind from WSW
Wind: WSW 3 mph , 6 km/h
Temperature: 57°F , 14°C
Dew Point: 39°F , 4°C
Humidity: 51%
Barometer: 29.78 inHg , 1008.5 hPa
Clouds: Clear
Visibility: 10 miles , 16 km
2021/04/12 11:53 KGMU 121153Z 25003KT 10SM CLR 14/04 A2978 RMK AO2 SLP077 T01390044 10156 20111 51020
 
KGYH - Greenville, South Carolina, USA
Distance from station: SSW 11mi, 18km
Updated: Mon, 12-Apr-2021 7:47am EDT
Clear
Clear
 Wind from WSW
Wind: WSW 6 mph , 9 km/h
Temperature: 54°F , 12°C
Dew Point: 43°F , 6°C
Humidity: 67%
Barometer: 29.78 inHg , 1008.5 hPa
Clouds: Clear
Visibility: 10 miles , 16 km
2021/04/12 11:47 KGYH 121147Z 24005KT 10SM CLR 12/06 A2978
KSPA - Spartanburg, South Carolina, USA
Distance from station: E 20mi, 32km
Updated: Mon, 12-Apr-2021 7:55am EDT
Clear
Clear
 Wind from calm
Wind: Calm
Temperature: 50°F , 10°C
Dew Point: 41°F , 5°C
Humidity: 71%
Barometer: 29.77 inHg , 1008.1 hPa
Clouds: Clear
Visibility: 10 miles , 16 km
2021/04/12 11:55 KSPA 121155Z AUTO 00000KT 10SM CLR 10/05 A2977 RMK AO2
 
KLQK - Pickens, South Carolina, USA
Distance from station: WSW 24mi, 39km
Updated: Mon, 12-Apr-2021 7:55am EDT
Clear
Clear
 Wind from S
Wind: S 3 mph , 6 km/h
Temperature: 43°F , 6°C
Dew Point: 43°F , 6°C
Humidity: 100%
Barometer: 29.77 inHg , 1008.1 hPa
Clouds: Clear
Visibility: 10 miles , 16 km
2021/04/12 11:55 KLQK 121155Z AUTO 18003KT 10SM CLR 06/06 A2977 RMK AO2 T00610061 10136 20053
KLUX - Laurens, South Carolina, USA
Distance from station: SE 33mi, 54km
Updated: Mon, 12-Apr-2021 7:55am EDT
Clear
Clear
 Wind from W
Wind: W 5 mph , 7 km/h
Temperature: 54°F , 12°C
Dew Point: 43°F , 6°C
Humidity: 67%
Barometer: 29.78 inHg , 1008.5 hPa
Clouds: Clear
Visibility: 10 miles , 16 km
2021/04/12 11:55 KLUX 121155Z AUTO 26004KT 10SM CLR 12/06 A2978 RMK AO2
 
KAND - Anderson, South Carolina, USA
Distance from station: SW 37mi, 59km
Updated: Mon, 12-Apr-2021 6:56am EDT
Clear
Clear
 Wind from calm
Wind: Calm
Temperature: 46°F , 8°C
Dew Point: 45°F , 7°C
Humidity: 93%
Barometer: 29.77 inHg , 1008.1 hPa
Clouds: Clear
Visibility: 10 miles , 16 km
2021/04/12 10:56 KAND 121056Z AUTO 00000KT 10SM CLR 08/07 A2977 RMK AO2 SLP075 T00830067
KCEU - Clemson, South Carolina, USA
Distance from station: WSW 37mi, 60km
Updated: Mon, 12-Apr-2021 7:54am EDT
Clear
Clear
 Wind from calm
Wind: Calm
Temperature: 52°F , 11°C
Dew Point: 41°F , 5°C
Humidity: 67%
Barometer: 29.79 inHg , 1008.8 hPa
Clouds: Clear
Visibility: 10 miles , 16 km
2021/04/12 11:54 KCEU 121154Z AUTO 00000KT 10SM CLR 11/05 A2979 RMK AO2 SLP081 T01110050 10139 20100 52018
 
KAVL - Asheville, North Carolina, USA
Distance from station: NNW 40mi, 64km
Updated: Mon, 12-Apr-2021 7:54am EDT
Clear
Clear
 Wind from calm
Wind: Calm
Temperature: 46°F , 8°C
Dew Point: 39°F , 4°C
Humidity: 76%
Barometer: 29.78 inHg , 1008.5 hPa
Clouds: Clear
Visibility: 10 miles , 16 km
2021/04/12 11:54 KAVL 121154Z 00000KT 10SM CLR 08/04 A2978 RMK AO2 SLP069 T00780039 10139 20067 53017
KFQD - Rutherfordton, North Carolina, USA
Distance from station: NNE 41mi, 66km
Updated: Mon, 12-Apr-2021 7:55am EDT
Clear
Clear
 Wind from WNW
Wind: WNW 3 mph , 6 km/h
Temperature: 50°F , 10°C
Dew Point: 37°F , 3°C
Humidity: 62%
Barometer: 29.77 inHg , 1008.1 hPa
Clouds: Clear
Visibility: 10 miles , 16 km
2021/04/12 11:55 KFQD 121155Z AUTO 29003KT 10SM CLR 10/03 A2977 RMK AO2
 
KGRD - Greenwood, South Carolina, USA
Distance from station: S 45mi, 73km
Updated: Mon, 12-Apr-2021 6:56am EDT
Clear
Clear
 Wind from W
Wind: W 5 mph , 7 km/h
Temperature: 52°F , 11°C
Dew Point: 43°F , 6°C
Humidity: 72%
Barometer: 29.78 inHg , 1008.5 hPa
Clouds: Clear
Visibility: 10 miles , 16 km
2021/04/12 10:56 KGRD 121056Z AUTO 27004KT 10SM CLR 11/06 A2978 RMK AO2 SLP082 T01110056
KEHO - Shelby Muni, North Carolina, USA
Distance from station: ENE 46mi, 74km
Updated: Mon, 12-Apr-2021 7:35am EDT
Clear
Clear
 Wind from SW
Wind: SW 3 mph , 6 km/h
Temperature: 52°F , 11°C
Dew Point: 39°F , 4°C
Humidity: 62%
Barometer: 29.75 inHg , 1007.5 hPa
Clouds: Clear
Visibility: 10 miles , 16 km
2021/04/12 11:35 KEHO 121135Z AUTO 23003KT 10SM CLR 11/04 A2975 RMK AO2 T01090035